createdAt,value
2022-10-30T00:00:51.061Z,15.45
2022-10-30T00:03:18.701Z,16.02
2022-10-30T00:05:47.800Z,21.60
2022-10-30T00:08:17.359Z,17.17
2022-10-30T00:10:44.914Z,18.17
2022-10-30T00:13:12.348Z,13.73
2022-10-30T00:15:39.962Z,14.95
2022-10-30T00:18:06.789Z,18.35
2022-10-30T00:20:35.836Z,14.90
2022-10-30T00:23:02.723Z,17.48
2022-10-30T00:25:29.496Z,20.88
2022-10-30T00:27:56.256Z,22.50
2022-10-30T00:30:23.059Z,17.13
2022-10-30T00:32:49.815Z,17.92
2022-10-30T00:35:16.693Z,18.13
2022-10-30T00:37:43.532Z,17.58
2022-10-30T00:40:16.125Z,15.88
2022-10-30T00:42:43.504Z,13.23
2022-10-30T00:45:15.327Z,15.05
2022-10-30T00:48:04.086Z,21.70
2022-10-30T00:50:36.486Z,15.90
2022-10-30T00:53:12.638Z,17.83
2022-10-30T00:55:46.776Z,13.80
2022-10-30T00:58:17.433Z,14.93
2022-10-30T01:00:50.740Z,21.15
2022-10-30T01:03:20.576Z,17.27
2022-10-30T01:05:52.588Z,19.48
2022-10-30T01:08:19.769Z,12.83
2022-10-30T01:10:48.113Z,14.45
2022-10-30T01:13:15.694Z,12.85
2022-10-30T01:16:01.966Z,11.95
2022-10-30T01:19:06.855Z,21.65
2022-10-30T01:21:58.276Z,18.48
2022-10-30T01:24:40.266Z,18.17
2022-10-30T01:27:24.284Z,17.60
2022-10-30T01:30:01.995Z,15.07
2022-10-30T01:32:31.831Z,14.55
2022-10-30T01:35:06.519Z,16.25
2022-10-30T01:37:45.885Z,21.40
2022-10-30T01:40:16.745Z,17.55
2022-10-30T01:42:54.777Z,18.45
2022-10-30T01:45:27.354Z,18.35
2022-10-30T01:48:18.512Z,19.30
2022-10-30T01:50:57.350Z,23.40
2022-10-30T01:53:48.986Z,17.10
2022-10-30T01:56:38.130Z,14.63
2022-10-30T01:59:21.313Z,17.23
2022-10-30T02:04:15.775Z,17.77
2022-10-30T02:06:43.058Z,13.57
2022-10-30T02:09:09.917Z,14.70
2022-10-30T02:11:38.704Z,16.70
2022-10-30T02:14:07.862Z,22.10
2022-10-30T02:16:47.231Z,18.23
2022-10-30T02:19:14.000Z,14.50
2022-10-30T02:21:40.945Z,17.58
2022-10-30T02:24:07.844Z,16.90
2022-10-30T02:26:34.830Z,12.50
2022-10-30T02:29:01.738Z,12.68
2022-10-30T02:31:28.913Z,19.17
2022-10-30T02:33:55.661Z,23.23
2022-10-30T02:36:22.456Z,17.05
2022-10-30T02:38:49.228Z,15.18
2022-10-30T02:41:16.117Z,12.27
2022-10-30T02:43:42.905Z,14.40
2022-10-30T02:46:09.645Z,13.20
2022-10-30T02:48:36.427Z,16.00
2022-10-30T02:51:04.615Z,14.38
2022-10-30T02:53:31.511Z,13.73
2022-10-30T02:56:07.291Z,15.68
2022-10-30T02:58:34.118Z,19.02
2022-10-30T03:01:13.213Z,18.65
2022-10-30T03:03:40.657Z,16.15
2022-10-30T03:06:10.451Z,16.88
2022-10-30T03:08:38.008Z,27.38
2022-10-30T03:11:09.644Z,17.98
2022-10-30T03:13:37.560Z,18.13
2022-10-30T03:16:07.121Z,16.17
2022-10-30T03:18:34.265Z,18.10
2022-10-30T03:21:03.753Z,18.35
2022-10-30T03:23:30.825Z,15.30
2022-10-30T03:25:59.207Z,17.80
2022-10-30T03:28:28.539Z,16.75
2022-10-30T03:31:02.198Z,17.65
2022-10-30T03:33:29.455Z,13.13
2022-10-30T03:35:56.677Z,21.92
2022-10-30T03:38:23.551Z,18.33
2022-10-30T03:40:50.561Z,20.50
2022-10-30T03:43:18.306Z,14.40
2022-10-30T03:45:49.784Z,20.83
2022-10-30T03:48:18.168Z,16.65
2022-10-30T03:50:45.386Z,18.00
2022-10-30T03:53:12.505Z,13.52
2022-10-30T03:55:39.451Z,18.02
2022-10-30T03:58:07.470Z,20.55
2022-10-30T04:00:35.438Z,23.98
2022-10-30T04:03:02.839Z,13.35
2022-10-30T04:05:30.837Z,22.63
2022-10-30T04:07:59.758Z,15.38
2022-10-30T04:10:27.004Z,21.02
2022-10-30T04:12:59.628Z,20.25
2022-10-30T04:15:26.715Z,22.80
2022-10-30T04:17:53.589Z,16.77
2022-10-30T04:20:22.255Z,19.17
2022-10-30T04:22:49.308Z,15.13
2022-10-30T04:25:16.207Z,16.95
2022-10-30T04:27:44.247Z,20.70
2022-10-30T04:30:12.753Z,19.92
2022-10-30T04:32:49.675Z,24.90
2022-10-30T04:35:18.655Z,20.90
2022-10-30T04:37:54.348Z,20.75
2022-10-30T04:40:22.451Z,18.70
2022-10-30T04:42:49.245Z,20.13
2022-10-30T04:45:16.635Z,16.73
2022-10-30T04:47:45.315Z,17.67
2022-10-30T04:50:12.559Z,14.90
2022-10-30T04:52:39.825Z,16.30
2022-10-30T04:55:08.228Z,18.10
2022-10-30T04:57:36.956Z,20.92
2022-10-30T05:00:05.613Z,14.13
2022-10-30T05:02:34.361Z,24.27
2022-10-30T05:05:01.274Z,17.38
2022-10-30T05:07:28.024Z,26.40
2022-10-30T05:09:54.759Z,16.30
2022-10-30T05:12:22.312Z,17.20
2022-10-30T05:14:49.101Z,19.05
2022-10-30T05:17:15.967Z,18.38
2022-10-30T05:19:42.781Z,19.50
2022-10-30T05:22:10.419Z,15.43
2022-10-30T05:24:37.236Z,21.35
2022-10-30T05:27:04.093Z,19.77
2022-10-30T05:29:30.929Z,22.13
2022-10-30T05:31:57.733Z,18.45
2022-10-30T05:34:24.468Z,19.77
2022-10-30T05:36:51.255Z,15.77
2022-10-30T05:39:18.004Z,22.92
2022-10-30T05:41:44.778Z,21.50
2022-10-30T05:44:11.627Z,24.02
2022-10-30T05:46:38.420Z,18.45
2022-10-30T05:49:05.257Z,16.35
2022-10-30T05:51:36.484Z,22.10
2022-10-30T05:54:06.620Z,20.15
2022-10-30T05:56:33.413Z,21.95
2022-10-30T05:59:00.360Z,19.55
2022-10-30T06:01:27.270Z,17.08
2022-10-30T06:03:54.151Z,19.80
2022-10-30T06:06:20.914Z,23.30
2022-10-30T06:08:47.780Z,20.50
2022-10-30T06:11:14.562Z,23.25
2022-10-30T06:13:41.440Z,23.80
2022-10-30T06:16:08.234Z,17.48
2022-10-30T06:18:35.038Z,16.85
2022-10-30T06:21:01.801Z,18.90
2022-10-30T06:23:28.626Z,24.58
2022-10-30T06:25:55.392Z,19.60
2022-10-30T06:28:22.615Z,20.60
2022-10-30T06:30:49.376Z,21.08
2022-10-30T06:33:16.129Z,24.02
2022-10-30T06:35:42.927Z,25.00
2022-10-30T06:38:11.998Z,20.38
2022-10-30T06:40:38.841Z,22.23
2022-10-30T06:43:05.662Z,25.73
2022-10-30T06:45:32.536Z,19.52
2022-10-30T06:48:02.202Z,22.27
2022-10-30T06:50:29.326Z,19.90
2022-10-30T06:52:56.084Z,20.38
2022-10-30T06:55:22.964Z,20.73
2022-10-30T06:57:57.721Z,18.75
2022-10-30T07:00:31.512Z,22.70
2022-10-30T07:03:00.248Z,28.92
2022-10-30T07:05:27.494Z,19.25
2022-10-30T07:07:56.998Z,23.95
2022-10-30T07:10:23.803Z,23.10
2022-10-30T07:12:55.072Z,19.95
2022-10-30T07:15:22.935Z,27.38
2022-10-30T07:18:10.202Z,26.67
2022-10-30T07:20:37.275Z,24.27
2022-10-30T07:23:04.457Z,21.58
2022-10-30T07:25:31.258Z,21.83
2022-10-30T07:27:58.589Z,22.05
2022-10-30T07:33:03.626Z,24.60
2022-10-30T07:35:31.978Z,21.15
2022-10-30T07:38:06.248Z,23.27
2022-10-30T07:40:34.071Z,27.45
2022-10-30T07:43:03.000Z,21.83
2022-10-30T07:45:30.616Z,25.60
2022-10-30T07:47:58.217Z,23.52
2022-10-30T07:50:25.315Z,17.80
2022-10-30T07:52:52.098Z,21.75
2022-10-30T07:55:18.990Z,20.52
2022-10-30T07:57:45.888Z,18.73
2022-10-30T08:00:14.533Z,23.65
2022-10-30T08:02:42.010Z,19.58
2022-10-30T08:05:09.828Z,27.42
2022-10-30T08:07:37.964Z,15.98
2022-10-30T08:10:06.139Z,19.45
2022-10-30T08:12:34.305Z,21.55
2022-10-30T08:15:01.493Z,24.38
2022-10-30T08:17:28.735Z,22.58
2022-10-30T08:19:57.117Z,20.17
2022-10-30T08:22:24.579Z,17.10
2022-10-30T08:24:51.582Z,21.08
2022-10-30T08:27:18.348Z,15.45
2022-10-30T08:29:45.147Z,16.55
2022-10-30T08:32:12.086Z,21.02
2022-10-30T08:34:38.895Z,16.15
2022-10-30T08:37:08.055Z,12.75
2022-10-30T08:39:34.972Z,18.75
2022-10-30T08:42:01.887Z,18.17
2022-10-30T08:44:28.663Z,13.65
2022-10-30T08:46:55.506Z,14.75
2022-10-30T08:49:22.312Z,16.77
2022-10-30T08:51:49.124Z,15.75
2022-10-30T08:54:16.012Z,15.57
2022-10-30T08:56:42.776Z,18.70
2022-10-30T08:59:09.610Z,18.20
2022-10-30T09:01:36.883Z,16.35
2022-10-30T09:04:04.045Z,21.58
2022-10-30T09:06:31.881Z,16.30
2022-10-30T09:08:58.818Z,10.70
2022-10-30T09:11:25.650Z,19.77
2022-10-30T09:13:52.581Z,19.13
2022-10-30T09:16:19.387Z,15.95
2022-10-30T09:18:46.135Z,15.73
2022-10-30T09:21:12.952Z,14.60
2022-10-30T09:23:39.699Z,15.82
2022-10-30T09:26:06.495Z,21.30
2022-10-30T09:28:33.303Z,15.27
2022-10-30T09:31:03.989Z,12.95
2022-10-30T09:33:30.931Z,15.40
2022-10-30T09:35:57.687Z,18.02
2022-10-30T09:38:24.594Z,14.07
2022-10-30T09:41:11.899Z,24.35
2022-10-30T09:44:01.634Z,19.05
2022-10-30T09:46:31.385Z,16.65
2022-10-30T09:49:06.899Z,13.50
2022-10-30T09:52:15.618Z,20.95
2022-10-30T09:54:59.574Z,18.50
2022-10-30T09:57:45.732Z,18.25
2022-10-30T10:00:17.087Z,18.20
2022-10-30T10:03:15.639Z,18.92
2022-10-30T10:05:53.710Z,15.85
2022-10-30T10:08:41.001Z,14.95
2022-10-30T10:11:21.520Z,19.23
2022-10-30T10:14:17.830Z,17.85
2022-10-30T10:16:53.101Z,10.98
2022-10-30T10:19:32.517Z,18.02
2022-10-30T10:22:01.983Z,19.88
2022-10-30T10:24:30.882Z,16.13
2022-10-30T10:27:14.504Z,15.85
2022-10-30T10:29:41.248Z,13.75
2022-10-30T10:32:44.999Z,15.07
2022-10-30T10:35:30.778Z,19.60
2022-10-30T10:38:12.996Z,19.80
2022-10-30T10:41:19.332Z,12.17
2022-10-30T10:44:13.753Z,15.23
2022-10-30T10:46:43.612Z,16.42
2022-10-30T10:49:39.227Z,11.95
2022-10-30T10:52:23.781Z,11.05
2022-10-30T10:54:55.531Z,17.10
2022-10-30T10:57:43.601Z,18.25
2022-10-30T11:00:25.680Z,14.13
2022-10-30T11:03:07.526Z,17.50
2022-10-30T11:05:56.513Z,13.30
2022-10-30T11:08:27.844Z,13.02
2022-10-30T11:11:06.460Z,16.30
2022-10-30T11:13:44.200Z,16.42
2022-10-30T11:16:29.410Z,11.70
2022-10-30T11:19:00.452Z,14.30
2022-10-30T11:21:32.541Z,15.10
2022-10-30T11:23:59.437Z,12.57
2022-10-30T11:26:29.564Z,17.27
2022-10-30T11:29:06.695Z,13.88
2022-10-30T11:31:37.992Z,14.07
2022-10-30T11:34:18.631Z,16.75
2022-10-30T11:36:47.923Z,10.05
2022-10-30T11:39:19.163Z,22.42
2022-10-30T11:42:09.442Z,16.48
2022-10-30T11:44:41.249Z,15.73
2022-10-30T11:47:09.281Z,13.68
2022-10-30T11:49:39.005Z,16.77
2022-10-30T11:52:08.062Z,13.23
2022-10-30T11:54:39.576Z,16.60
2022-10-30T11:57:43.755Z,20.38
2022-10-30T12:00:21.460Z,20.08
2022-10-30T12:02:53.390Z,16.60
2022-10-30T12:05:29.255Z,18.00
2022-10-30T12:08:16.044Z,14.88
2022-10-30T12:10:47.458Z,10.50
2022-10-30T12:13:16.706Z,10.73
2022-10-30T12:15:45.371Z,15.75
2022-10-30T12:18:22.574Z,14.00
2022-10-30T12:20:54.133Z,10.27
2022-10-30T12:23:24.901Z,14.45
2022-10-30T12:25:58.844Z,15.27
2022-10-30T12:28:29.051Z,9.90
2022-10-30T12:31:27.663Z,16.33
2022-10-30T12:34:07.514Z,14.98
2022-10-30T12:36:41.707Z,12.52
2022-10-30T12:39:20.669Z,9.25
2022-10-30T12:42:02.950Z,13.30
2022-10-30T12:44:53.160Z,10.10
2022-10-30T12:47:39.465Z,12.98
2022-10-30T12:50:45.189Z,15.50
2022-10-30T12:53:20.756Z,10.82
2022-10-30T12:56:00.228Z,17.38
2022-10-30T12:58:48.379Z,16.05
2022-10-30T13:01:31.805Z,15.20
2022-10-30T13:04:22.828Z,11.88
2022-10-30T13:06:58.009Z,9.02
2022-10-30T13:09:42.644Z,12.45
2022-10-30T13:12:35.399Z,13.52
2022-10-30T13:15:24.982Z,11.50
2022-10-30T13:17:52.015Z,18.83
2022-10-30T13:20:19.881Z,11.48
2022-10-30T13:22:53.048Z,12.85
2022-10-30T13:25:55.221Z,12.65
2022-10-30T13:28:28.140Z,8.80
2022-10-30T13:31:21.745Z,10.77
2022-10-30T13:33:53.438Z,11.50
2022-10-30T13:36:30.772Z,9.30
2022-10-30T13:39:36.478Z,14.00
2022-10-30T13:42:31.259Z,12.52
2022-10-30T13:45:07.151Z,9.38
2022-10-30T13:48:12.536Z,10.68
2022-10-30T13:51:09.787Z,10.00
2022-10-30T13:53:40.536Z,16.90
2022-10-30T13:56:15.134Z,8.68
2022-10-30T13:59:01.915Z,11.88
2022-10-30T14:01:51.303Z,11.68
2022-10-30T14:04:38.572Z,7.70
2022-10-30T14:07:30.455Z,13.18
2022-10-30T14:10:08.732Z,17.98
2022-10-30T14:12:52.794Z,11.43
2022-10-30T14:15:40.630Z,12.25
2022-10-30T14:18:13.709Z,12.23
2022-10-30T14:20:46.703Z,13.35
2022-10-30T14:23:16.222Z,10.20
2022-10-30T14:25:43.159Z,11.48
2022-10-30T14:28:20.827Z,11.20
2022-10-30T14:30:47.724Z,14.27
2022-10-30T14:33:45.670Z,10.43
2022-10-30T14:36:13.332Z,14.35
2022-10-30T14:38:40.121Z,8.50
2022-10-30T14:41:18.788Z,10.13
2022-10-30T14:44:19.527Z,14.05
2022-10-30T14:47:21.591Z,13.68
2022-10-30T14:50:13.041Z,13.38
2022-10-30T14:52:48.809Z,14.95
2022-10-30T14:55:52.854Z,13.65
2022-10-30T14:58:29.418Z,10.93
2022-10-30T15:01:16.291Z,11.43
2022-10-30T15:04:06.663Z,11.13
2022-10-30T15:07:04.252Z,13.02
2022-10-30T15:10:08.652Z,12.07
2022-10-30T15:12:41.446Z,11.93
2022-10-30T15:18:07.629Z,17.42
2022-10-30T15:20:35.732Z,14.70
2022-10-30T15:23:06.880Z,14.02
2022-10-30T15:25:38.490Z,10.90
2022-10-30T15:28:05.932Z,10.40
2022-10-30T15:30:32.720Z,11.45
2022-10-30T15:32:59.824Z,11.13
2022-10-30T15:35:28.716Z,12.73
2022-10-30T15:38:03.574Z,10.93
2022-10-30T15:40:31.150Z,10.65
2022-10-30T15:43:01.173Z,11.82
2022-10-30T15:45:43.458Z,15.88
2022-10-30T15:48:28.186Z,11.23
2022-10-30T15:51:05.706Z,14.40
2022-10-30T15:53:35.590Z,11.00
2022-10-30T15:56:03.189Z,11.13
2022-10-30T15:58:37.424Z,13.10
2022-10-30T16:01:04.572Z,12.50
2022-10-30T16:03:32.764Z,14.45
2022-10-30T16:06:15.446Z,11.23
2022-10-30T16:08:48.728Z,15.07
2022-10-30T16:11:16.107Z,12.75
2022-10-30T16:13:43.456Z,16.63
2022-10-30T16:16:36.392Z,13.75
2022-10-30T16:19:04.993Z,12.77
2022-10-30T16:21:32.284Z,11.50
2022-10-30T16:24:01.159Z,12.32
2022-10-30T16:26:30.127Z,15.43
2022-10-30T16:28:58.897Z,17.67
2022-10-30T16:31:30.627Z,12.48
2022-10-30T16:33:58.755Z,12.00
2022-10-30T16:36:26.122Z,10.05
2022-10-30T16:38:54.344Z,10.90
2022-10-30T16:41:26.536Z,15.90
2022-10-30T16:44:24.539Z,18.38
2022-10-30T16:46:57.511Z,19.15
2022-10-30T16:49:28.101Z,18.90
2022-10-30T16:52:02.731Z,16.20
2022-10-30T16:54:35.507Z,12.50
2022-10-30T16:57:03.761Z,16.73
2022-10-30T16:59:44.202Z,13.10
2022-10-30T17:02:21.139Z,13.48
2022-10-30T17:04:55.510Z,12.75
2022-10-30T17:07:26.551Z,12.10
2022-10-30T17:09:56.795Z,12.95
2022-10-30T17:12:25.404Z,13.57
2022-10-30T17:15:04.282Z,10.30
2022-10-30T17:17:35.148Z,15.88
2022-10-30T17:20:13.515Z,15.32
2022-10-30T17:22:40.717Z,13.48
2022-10-30T17:25:32.987Z,11.90
2022-10-30T17:27:59.752Z,16.05
2022-10-30T17:30:43.297Z,15.48
2022-10-30T17:33:43.890Z,15.40
2022-10-30T17:36:11.248Z,15.07
2022-10-30T17:38:38.348Z,15.65
2022-10-30T17:41:07.073Z,18.10
2022-10-30T17:43:49.191Z,16.08
2022-10-30T17:46:20.154Z,18.38
2022-10-30T17:48:47.777Z,17.30
2022-10-30T17:51:15.841Z,15.52
2022-10-30T17:53:43.457Z,17.45
2022-10-30T17:56:20.687Z,18.33
2022-10-30T17:58:47.708Z,18.40
2022-10-30T18:01:18.596Z,13.98
2022-10-30T18:03:45.900Z,18.20
2022-10-30T18:06:27.443Z,19.75
2022-10-30T18:08:55.181Z,18.00
2022-10-30T18:11:24.456Z,17.38
2022-10-30T18:13:52.876Z,14.75
2022-10-30T18:16:20.160Z,17.30
2022-10-30T18:18:47.420Z,17.38
2022-10-30T18:21:22.840Z,15.32
2022-10-30T18:23:52.741Z,19.58
2022-10-30T18:26:25.682Z,23.08
2022-10-30T18:28:52.604Z,16.60
2022-10-30T18:31:22.686Z,17.75
2022-10-30T18:33:49.604Z,22.08
2022-10-30T18:36:19.520Z,22.52
2022-10-30T18:38:46.547Z,19.33
2022-10-30T18:41:19.912Z,19.67
2022-10-30T18:43:47.412Z,14.00
2022-10-30T18:46:15.634Z,17.27
2022-10-30T18:48:42.809Z,19.67
2022-10-30T18:51:23.488Z,15.77
2022-10-30T18:53:53.684Z,17.17
2022-10-30T18:56:26.655Z,16.30
2022-10-30T19:01:32.785Z,17.05
2022-10-30T19:04:04.431Z,19.75
2022-10-30T19:06:34.482Z,15.73
2022-10-30T19:09:01.694Z,14.23
2022-10-30T19:11:31.380Z,18.50
2022-10-30T19:13:59.360Z,17.42
2022-10-30T19:16:26.720Z,20.42
2022-10-30T19:18:53.821Z,16.77
2022-10-30T19:21:23.200Z,18.42
2022-10-30T19:23:50.214Z,17.48
2022-10-30T19:26:17.736Z,19.70
2022-10-30T19:28:45.834Z,20.23
2022-10-30T19:31:17.669Z,20.23
2022-10-30T19:33:45.064Z,17.13
2022-10-30T19:36:37.059Z,16.05
2022-10-30T19:39:16.883Z,18.05
2022-10-30T19:41:44.044Z,14.60
2022-10-30T19:44:11.228Z,19.20
2022-10-30T19:46:38.117Z,18.45
2022-10-30T19:49:19.221Z,14.85
2022-10-30T19:51:46.453Z,14.73
2022-10-30T19:54:13.375Z,20.88
2022-10-30T19:56:42.464Z,19.13
2022-10-30T19:59:11.727Z,17.00
2022-10-30T20:01:38.680Z,15.63
2022-10-30T20:04:05.633Z,18.25
2022-10-30T20:06:32.499Z,17.52
2022-10-30T20:09:02.441Z,21.73
2022-10-30T20:11:29.687Z,27.77
2022-10-30T20:13:56.552Z,18.90
2022-10-30T20:16:23.524Z,18.70
2022-10-30T20:18:50.911Z,17.38
2022-10-30T20:21:19.314Z,17.45
2022-10-30T20:23:46.214Z,17.55
2022-10-30T20:26:18.911Z,18.73
2022-10-30T20:28:46.049Z,19.05
2022-10-30T20:31:13.235Z,20.60
2022-10-30T20:33:40.271Z,17.60
2022-10-30T20:36:07.252Z,18.67
2022-10-30T20:38:34.836Z,20.55
2022-10-30T20:41:03.900Z,16.75
2022-10-30T20:43:39.087Z,19.60
2022-10-30T20:46:09.371Z,19.05
2022-10-30T20:48:36.280Z,15.88
2022-10-30T20:51:03.464Z,25.58
2022-10-30T20:53:30.641Z,17.00
2022-10-30T20:55:57.474Z,23.02
2022-10-30T20:58:24.974Z,20.02
2022-10-30T21:00:55.378Z,20.30
2022-10-30T21:03:22.402Z,20.02
2022-10-30T21:05:55.773Z,23.40
2022-10-30T21:08:22.644Z,21.40
2022-10-30T21:10:49.444Z,20.75
2022-10-30T21:13:16.247Z,23.20
2022-10-30T21:15:47.125Z,21.92
2022-10-30T21:18:13.948Z,23.52
2022-10-30T21:20:43.556Z,21.50
2022-10-30T21:23:10.520Z,22.42
2022-10-30T21:25:37.354Z,22.15
2022-10-30T21:28:04.406Z,22.85
2022-10-30T21:30:31.449Z,20.25
2022-10-30T21:32:59.289Z,27.15
2022-10-30T21:35:27.095Z,20.75
2022-10-30T21:37:54.003Z,20.55
2022-10-30T21:40:20.864Z,18.60
2022-10-30T21:42:48.844Z,21.70
2022-10-30T21:45:16.014Z,21.83
2022-10-30T21:47:42.780Z,25.25
2022-10-30T21:50:12.343Z,26.80
2022-10-30T21:52:40.357Z,21.60
2022-10-30T21:55:07.910Z,24.52
2022-10-30T21:57:35.129Z,20.63
2022-10-30T22:00:05.891Z,24.20
2022-10-30T22:02:34.811Z,21.95
2022-10-30T22:05:01.713Z,23.45
2022-10-30T22:07:28.551Z,20.10
2022-10-30T22:09:55.386Z,26.75
2022-10-30T22:12:22.176Z,23.33
2022-10-30T22:14:49.008Z,25.23
2022-10-30T22:17:15.967Z,24.67
2022-10-30T22:19:42.743Z,19.70
2022-10-30T22:22:11.114Z,29.73
2022-10-30T22:24:38.044Z,27.92
2022-10-30T22:27:05.002Z,24.80
2022-10-30T22:29:31.886Z,30.65
2022-10-30T22:31:58.715Z,24.80
2022-10-30T22:34:25.481Z,21.95
2022-10-30T22:36:52.271Z,24.95
2022-10-30T22:39:19.109Z,24.33
2022-10-30T22:41:45.876Z,22.23
2022-10-30T22:44:14.334Z,22.30
2022-10-30T22:46:41.475Z,30.40
2022-10-30T22:49:08.378Z,27.00
2022-10-30T22:51:37.385Z,20.30
2022-10-30T22:54:06.526Z,26.60
2022-10-30T22:56:35.483Z,24.10
2022-10-30T22:59:04.596Z,23.58
2022-10-30T23:01:34.090Z,23.90
2022-10-30T23:04:02.280Z,25.92
2022-10-30T23:06:30.988Z,27.10
2022-10-30T23:09:00.304Z,23.20
2022-10-30T23:11:28.597Z,29.50
2022-10-30T23:13:55.876Z,20.80
2022-10-30T23:16:24.746Z,22.90
2022-10-30T23:18:54.242Z,26.95
2022-10-30T23:21:23.207Z,24.67
2022-10-30T23:23:50.257Z,24.73
2022-10-30T23:26:25.728Z,20.98
2022-10-30T23:28:54.141Z,25.17
2022-10-30T23:31:23.132Z,28.10
2022-10-30T23:33:51.500Z,23.23
2022-10-30T23:36:19.076Z,25.58
2022-10-30T23:38:51.946Z,23.00
2022-10-30T23:41:20.131Z,25.10
2022-10-30T23:43:46.947Z,23.08
2022-10-30T23:46:13.884Z,21.95
2022-10-30T23:48:40.687Z,21.88
2022-10-30T23:51:08.680Z,27.45
2022-10-30T23:53:35.680Z,21.63
2022-10-30T23:56:03.529Z,19.10
2022-10-30T23:58:30.291Z,20.55
